sensor_id;sensor_type;location;lat;lon;timestamp;P1;durP1;ratioP1;P2;durP2;ratioP2
15049;SDS011;7622;42.724;23.250;2024-01-06T00:02:09;55.60;;;31.23;;
15049;SDS011;7622;42.724;23.250;2024-01-06T00:04:36;58.47;;;30.43;;
15049;SDS011;7622;42.724;23.250;2024-01-06T00:07:03;59.13;;;32.20;;
15049;SDS011;7622;42.724;23.250;2024-01-06T00:09:29;57.43;;;31.93;;
15049;SDS011;7622;42.724;23.250;2024-01-06T00:11:56;61.67;;;30.97;;
15049;SDS011;7622;42.724;23.250;2024-01-06T00:14:25;57.17;;;31.13;;
15049;SDS011;7622;42.724;23.250;2024-01-06T00:16:52;58.77;;;32.77;;
15049;SDS011;7622;42.724;23.250;2024-01-06T00:19:20;63.27;;;32.40;;
15049;SDS011;7622;42.724;23.250;2024-01-06T00:21:47;62.63;;;32.13;;
15049;SDS011;7622;42.724;23.250;2024-01-06T00:24:13;60.40;;;30.10;;
15049;SDS011;7622;42.724;23.250;2024-01-06T00:26:40;58.03;;;31.23;;
15049;SDS011;7622;42.724;23.250;2024-01-06T00:29:07;52.70;;;30.33;;
15049;SDS011;7622;42.724;23.250;2024-01-06T00:31:34;48.30;;;28.03;;
15049;SDS011;7622;42.724;23.250;2024-01-06T00:34:01;55.47;;;28.30;;
15049;SDS011;7622;42.724;23.250;2024-01-06T00:36:30;52.87;;;28.43;;
15049;SDS011;7622;42.724;23.250;2024-01-06T00:38:57;55.03;;;30.13;;
15049;SDS011;7622;42.724;23.250;2024-01-06T00:41:23;57.40;;;30.00;;
15049;SDS011;7622;42.724;23.250;2024-01-06T00:43:50;51.13;;;29.00;;
15049;SDS011;7622;42.724;23.250;2024-01-06T00:46:17;51.70;;;29.23;;
15049;SDS011;7622;42.724;23.250;2024-01-06T00:48:44;50.83;;;29.03;;
15049;SDS011;7622;42.724;23.250;2024-01-06T00:51:10;50.70;;;28.83;;
15049;SDS011;7622;42.724;23.250;2024-01-06T00:53:38;49.80;;;29.10;;
15049;SDS011;7622;42.724;23.250;2024-01-06T00:56:05;51.73;;;27.47;;
15049;SDS011;7622;42.724;23.250;2024-01-06T00:58:32;48.33;;;27.23;;
15049;SDS011;7622;42.724;23.250;2024-01-06T01:00:58;57.20;;;28.33;;
15049;SDS011;7622;42.724;23.250;2024-01-06T01:03:25;43.13;;;25.13;;
15049;SDS011;7622;42.724;23.250;2024-01-06T01:05:53;47.40;;;25.87;;
15049;SDS011;7622;42.724;23.250;2024-01-06T01:08:23;47.73;;;25.40;;
15049;SDS011;7622;42.724;23.250;2024-01-06T01:10:53;47.80;;;26.07;;
15049;SDS011;7622;42.724;23.250;2024-01-06T01:13:19;40.17;;;24.53;;
15049;SDS011;7622;42.724;23.250;2024-01-06T01:15:46;49.80;;;27.07;;
15049;SDS011;7622;42.724;23.250;2024-01-06T01:18:13;40.37;;;23.47;;
15049;SDS011;7622;42.724;23.250;2024-01-06T01:20:40;45.10;;;23.43;;
15049;SDS011;7622;42.724;23.250;2024-01-06T01:23:07;43.30;;;22.10;;
15049;SDS011;7622;42.724;23.250;2024-01-06T01:25:34;35.07;;;19.97;;
15049;SDS011;7622;42.724;23.250;2024-01-06T01:28:02;39.20;;;22.40;;
15049;SDS011;7622;42.724;23.250;2024-01-06T01:30:29;40.30;;;22.30;;
15049;SDS011;7622;42.724;23.250;2024-01-06T01:32:57;37.53;;;21.33;;
15049;SDS011;7622;42.724;23.250;2024-01-06T01:35:24;35.23;;;21.67;;
15049;SDS011;7622;42.724;23.250;2024-01-06T01:37:50;31.70;;;19.47;;
15049;SDS011;7622;42.724;23.250;2024-01-06T01:40:17;32.07;;;17.73;;
15049;SDS011;7622;42.724;23.250;2024-01-06T01:42:44;26.40;;;15.17;;
15049;SDS011;7622;42.724;23.250;2024-01-06T01:45:12;27.53;;;16.77;;
15049;SDS011;7622;42.724;23.250;2024-01-06T01:47:39;28.73;;;17.33;;
15049;SDS011;7622;42.724;23.250;2024-01-06T01:50:06;24.03;;;15.27;;
15049;SDS011;7622;42.724;23.250;2024-01-06T01:52:35;27.43;;;16.80;;
15049;SDS011;7622;42.724;23.250;2024-01-06T01:55:02;35.13;;;19.10;;
15049;SDS011;7622;42.724;23.250;2024-01-06T01:57:29;33.87;;;18.37;;
15049;SDS011;7622;42.724;23.250;2024-01-06T01:59:56;31.27;;;17.63;;
15049;SDS011;7622;42.724;23.250;2024-01-06T02:02:25;30.13;;;17.10;;
15049;SDS011;7622;42.724;23.250;2024-01-06T02:04:56;29.73;;;17.13;;
15049;SDS011;7622;42.724;23.250;2024-01-06T02:07:24;30.87;;;19.57;;
15049;SDS011;7622;42.724;23.250;2024-01-06T02:09:51;32.13;;;18.60;;
15049;SDS011;7622;42.724;23.250;2024-01-06T02:12:18;35.33;;;19.77;;
15049;SDS011;7622;42.724;23.250;2024-01-06T02:14:45;37.67;;;21.07;;
15049;SDS011;7622;42.724;23.250;2024-01-06T02:17:11;43.53;;;20.80;;
15049;SDS011;7622;42.724;23.250;2024-01-06T02:19:39;34.27;;;20.60;;
15049;SDS011;7622;42.724;23.250;2024-01-06T02:22:08;34.43;;;21.20;;
15049;SDS011;7622;42.724;23.250;2024-01-06T02:24:34;39.60;;;21.60;;
15049;SDS011;7622;42.724;23.250;2024-01-06T02:27:01;33.10;;;20.53;;
15049;SDS011;7622;42.724;23.250;2024-01-06T02:29:28;41.00;;;20.03;;
15049;SDS011;7622;42.724;23.250;2024-01-06T02:31:54;31.37;;;17.67;;
15049;SDS011;7622;42.724;23.250;2024-01-06T02:34:21;30.17;;;16.57;;
15049;SDS011;7622;42.724;23.250;2024-01-06T02:36:49;34.97;;;20.57;;
15049;SDS011;7622;42.724;23.250;2024-01-06T02:39:17;34.80;;;20.27;;
15049;SDS011;7622;42.724;23.250;2024-01-06T02:41:43;36.43;;;19.63;;
15049;SDS011;7622;42.724;23.250;2024-01-06T02:44:10;37.70;;;21.63;;
15049;SDS011;7622;42.724;23.250;2024-01-06T02:46:38;32.03;;;20.17;;
15049;SDS011;7622;42.724;23.250;2024-01-06T02:49:05;26.33;;;14.80;;
15049;SDS011;7622;42.724;23.250;2024-01-06T02:51:33;23.97;;;13.47;;
15049;SDS011;7622;42.724;23.250;2024-01-06T02:53:59;42.43;;;21.67;;
15049;SDS011;7622;42.724;23.250;2024-01-06T02:56:27;29.93;;;17.03;;
15049;SDS011;7622;42.724;23.250;2024-01-06T02:58:54;43.67;;;22.67;;
15049;SDS011;7622;42.724;23.250;2024-01-06T03:01:21;38.63;;;20.70;;
15049;SDS011;7622;42.724;23.250;2024-01-06T03:03:48;39.70;;;22.37;;
15049;SDS011;7622;42.724;23.250;2024-01-06T03:06:14;40.13;;;22.57;;
15049;SDS011;7622;42.724;23.250;2024-01-06T03:08:41;41.13;;;21.40;;
15049;SDS011;7622;42.724;23.250;2024-01-06T03:11:08;39.33;;;23.17;;
15049;SDS011;7622;42.724;23.250;2024-01-06T03:13:36;38.97;;;22.83;;
15049;SDS011;7622;42.724;23.250;2024-01-06T03:16:03;40.90;;;21.87;;
15049;SDS011;7622;42.724;23.250;2024-01-06T03:18:31;48.43;;;23.27;;
15049;SDS011;7622;42.724;23.250;2024-01-06T03:20:57;38.70;;;22.33;;
15049;SDS011;7622;42.724;23.250;2024-01-06T03:23:24;40.60;;;23.40;;
15049;SDS011;7622;42.724;23.250;2024-01-06T03:25:51;44.30;;;23.80;;
15049;SDS011;7622;42.724;23.250;2024-01-06T03:28:17;42.27;;;23.27;;
15049;SDS011;7622;42.724;23.250;2024-01-06T03:30:45;42.67;;;23.20;;
15049;SDS011;7622;42.724;23.250;2024-01-06T03:33:12;45.10;;;24.67;;
15049;SDS011;7622;42.724;23.250;2024-01-06T03:35:39;45.27;;;24.83;;
15049;SDS011;7622;42.724;23.250;2024-01-06T03:38:06;40.03;;;23.23;;
15049;SDS011;7622;42.724;23.250;2024-01-06T03:40:32;37.70;;;23.10;;
15049;SDS011;7622;42.724;23.250;2024-01-06T03:42:59;41.77;;;22.47;;
15049;SDS011;7622;42.724;23.250;2024-01-06T03:45:26;39.27;;;22.13;;
15049;SDS011;7622;42.724;23.250;2024-01-06T03:47:54;34.07;;;18.80;;
15049;SDS011;7622;42.724;23.250;2024-01-06T03:50:21;34.83;;;19.73;;
15049;SDS011;7622;42.724;23.250;2024-01-06T03:52:47;38.87;;;22.63;;
15049;SDS011;7622;42.724;23.250;2024-01-06T03:55:15;41.33;;;20.97;;
15049;SDS011;7622;42.724;23.250;2024-01-06T03:57:41;38.00;;;20.87;;
15049;SDS011;7622;42.724;23.250;2024-01-06T04:00:08;34.40;;;20.20;;
15049;SDS011;7622;42.724;23.250;2024-01-06T04:02:35;33.40;;;20.77;;
15049;SDS011;7622;42.724;23.250;2024-01-06T04:05:04;42.20;;;21.63;;
15049;SDS011;7622;42.724;23.250;2024-01-06T04:07:30;38.90;;;23.83;;
15049;SDS011;7622;42.724;23.250;2024-01-06T04:09:57;50.23;;;24.07;;
15049;SDS011;7622;42.724;23.250;2024-01-06T04:12:23;51.77;;;28.20;;
15049;SDS011;7622;42.724;23.250;2024-01-06T04:14:50;59.27;;;32.40;;
15049;SDS011;7622;42.724;23.250;2024-01-06T04:17:17;61.63;;;32.20;;
15049;SDS011;7622;42.724;23.250;2024-01-06T04:19:44;56.73;;;32.03;;
15049;SDS011;7622;42.724;23.250;2024-01-06T04:22:12;50.83;;;30.00;;
15049;SDS011;7622;42.724;23.250;2024-01-06T04:24:39;57.90;;;31.37;;
15049;SDS011;7622;42.724;23.250;2024-01-06T04:27:05;52.17;;;30.53;;
15049;SDS011;7622;42.724;23.250;2024-01-06T04:29:32;54.23;;;29.70;;
15049;SDS011;7622;42.724;23.250;2024-01-06T04:31:59;55.60;;;30.80;;
15049;SDS011;7622;42.724;23.250;2024-01-06T04:34:26;49.53;;;28.37;;
15049;SDS011;7622;42.724;23.250;2024-01-06T04:36:52;49.50;;;27.37;;
15049;SDS011;7622;42.724;23.250;2024-01-06T04:39:20;44.70;;;25.73;;
15049;SDS011;7622;42.724;23.250;2024-01-06T04:41:47;38.67;;;24.03;;
15049;SDS011;7622;42.724;23.250;2024-01-06T04:44:14;37.83;;;22.83;;
15049;SDS011;7622;42.724;23.250;2024-01-06T04:46:40;39.67;;;23.20;;
15049;SDS011;7622;42.724;23.250;2024-01-06T04:49:07;47.17;;;24.80;;
15049;SDS011;7622;42.724;23.250;2024-01-06T04:51:34;40.93;;;24.80;;
15049;SDS011;7622;42.724;23.250;2024-01-06T04:54:01;47.07;;;24.77;;
15049;SDS011;7622;42.724;23.250;2024-01-06T04:56:29;38.87;;;23.80;;
15049;SDS011;7622;42.724;23.250;2024-01-06T04:58:56;39.43;;;22.00;;
15049;SDS011;7622;42.724;23.250;2024-01-06T05:01:26;40.43;;;23.37;;
15049;SDS011;7622;42.724;23.250;2024-01-06T05:03:54;37.03;;;23.67;;
15049;SDS011;7622;42.724;23.250;2024-01-06T05:06:21;41.73;;;24.07;;
15049;SDS011;7622;42.724;23.250;2024-01-06T05:08:49;37.00;;;21.43;;
15049;SDS011;7622;42.724;23.250;2024-01-06T05:11:16;35.43;;;21.33;;
15049;SDS011;7622;42.724;23.250;2024-01-06T05:13:44;38.13;;;20.83;;
15049;SDS011;7622;42.724;23.250;2024-01-06T05:16:11;41.30;;;23.10;;
15049;SDS011;7622;42.724;23.250;2024-01-06T05:18:37;40.13;;;24.20;;
15049;SDS011;7622;42.724;23.250;2024-01-06T05:21:04;33.90;;;21.47;;
15049;SDS011;7622;42.724;23.250;2024-01-06T05:23:31;38.77;;;21.70;;
15049;SDS011;7622;42.724;23.250;2024-01-06T05:25:58;38.50;;;22.23;;
15049;SDS011;7622;42.724;23.250;2024-01-06T05:28:25;46.23;;;23.90;;
15049;SDS011;7622;42.724;23.250;2024-01-06T05:30:54;41.33;;;23.37;;
15049;SDS011;7622;42.724;23.250;2024-01-06T05:33:21;47.00;;;25.17;;
15049;SDS011;7622;42.724;23.250;2024-01-06T05:35:47;34.67;;;19.53;;
15049;SDS011;7622;42.724;23.250;2024-01-06T05:38:14;34.93;;;21.90;;
15049;SDS011;7622;42.724;23.250;2024-01-06T05:40:42;36.23;;;20.77;;
15049;SDS011;7622;42.724;23.250;2024-01-06T05:43:09;38.80;;;20.10;;
15049;SDS011;7622;42.724;23.250;2024-01-06T05:45:36;32.63;;;19.60;;
15049;SDS011;7622;42.724;23.250;2024-01-06T05:48:09;34.13;;;18.43;;
15049;SDS011;7622;42.724;23.250;2024-01-06T05:50:37;40.13;;;20.03;;
15049;SDS011;7622;42.724;23.250;2024-01-06T05:53:04;38.33;;;19.40;;
15049;SDS011;7622;42.724;23.250;2024-01-06T05:55:31;32.77;;;19.73;;
15049;SDS011;7622;42.724;23.250;2024-01-06T05:57:58;25.93;;;17.33;;
15049;SDS011;7622;42.724;23.250;2024-01-06T06:00:26;31.90;;;16.93;;
15049;SDS011;7622;42.724;23.250;2024-01-06T06:02:52;32.00;;;17.87;;
15049;SDS011;7622;42.724;23.250;2024-01-06T06:05:20;31.10;;;19.30;;
15049;SDS011;7622;42.724;23.250;2024-01-06T06:07:47;33.80;;;19.37;;
15049;SDS011;7622;42.724;23.250;2024-01-06T06:10:14;28.73;;;16.13;;
15049;SDS011;7622;42.724;23.250;2024-01-06T06:12:43;27.07;;;17.90;;
15049;SDS011;7622;42.724;23.250;2024-01-06T06:15:10;27.47;;;16.70;;
15049;SDS011;7622;42.724;23.250;2024-01-06T06:17:38;26.87;;;16.00;;
15049;SDS011;7622;42.724;23.250;2024-01-06T06:20:05;28.37;;;16.70;;
15049;SDS011;7622;42.724;23.250;2024-01-06T06:22:34;25.63;;;14.83;;
15049;SDS011;7622;42.724;23.250;2024-01-06T06:25:01;22.80;;;14.40;;
15049;SDS011;7622;42.724;23.250;2024-01-06T06:27:28;26.43;;;14.60;;
15049;SDS011;7622;42.724;23.250;2024-01-06T06:29:55;22.27;;;15.17;;
15049;SDS011;7622;42.724;23.250;2024-01-06T06:32:22;27.53;;;14.17;;
15049;SDS011;7622;42.724;23.250;2024-01-06T06:34:51;19.80;;;14.20;;
15049;SDS011;7622;42.724;23.250;2024-01-06T06:37:17;32.47;;;18.30;;
15049;SDS011;7622;42.724;23.250;2024-01-06T06:39:46;34.83;;;21.27;;
15049;SDS011;7622;42.724;23.250;2024-01-06T06:42:12;37.83;;;22.37;;
15049;SDS011;7622;42.724;23.250;2024-01-06T06:44:39;43.67;;;24.63;;
15049;SDS011;7622;42.724;23.250;2024-01-06T06:47:06;53.17;;;28.80;;
15049;SDS011;7622;42.724;23.250;2024-01-06T06:49:32;54.37;;;27.43;;
15049;SDS011;7622;42.724;23.250;2024-01-06T06:51:59;55.20;;;29.00;;
15049;SDS011;7622;42.724;23.250;2024-01-06T06:54:28;51.67;;;28.30;;
15049;SDS011;7622;42.724;23.250;2024-01-06T06:56:56;57.43;;;27.53;;
15049;SDS011;7622;42.724;23.250;2024-01-06T06:59:26;46.43;;;25.93;;
15049;SDS011;7622;42.724;23.250;2024-01-06T07:01:55;47.13;;;27.00;;
15049;SDS011;7622;42.724;23.250;2024-01-06T07:04:22;51.60;;;28.40;;
15049;SDS011;7622;42.724;23.250;2024-01-06T07:06:51;42.97;;;26.93;;
15049;SDS011;7622;42.724;23.250;2024-01-06T07:09:17;50.87;;;28.73;;
15049;SDS011;7622;42.724;23.250;2024-01-06T07:11:44;47.90;;;26.60;;
15049;SDS011;7622;42.724;23.250;2024-01-06T07:14:12;52.40;;;28.33;;
15049;SDS011;7622;42.724;23.250;2024-01-06T07:16:39;49.73;;;27.37;;
15049;SDS011;7622;42.724;23.250;2024-01-06T07:19:06;51.13;;;28.27;;
15049;SDS011;7622;42.724;23.250;2024-01-06T07:21:32;47.63;;;26.00;;
15049;SDS011;7622;42.724;23.250;2024-01-06T07:23:59;34.77;;;21.20;;
15049;SDS011;7622;42.724;23.250;2024-01-06T07:26:27;41.73;;;22.90;;
15049;SDS011;7622;42.724;23.250;2024-01-06T07:28:53;116.27;;;40.77;;
15049;SDS011;7622;42.724;23.250;2024-01-06T07:31:22;39.67;;;25.30;;
15049;SDS011;7622;42.724;23.250;2024-01-06T07:33:48;41.40;;;24.80;;
15049;SDS011;7622;42.724;23.250;2024-01-06T07:36:15;45.13;;;25.43;;
15049;SDS011;7622;42.724;23.250;2024-01-06T07:38:42;47.00;;;25.73;;
15049;SDS011;7622;42.724;23.250;2024-01-06T07:41:11;45.50;;;25.63;;
15049;SDS011;7622;42.724;23.250;2024-01-06T07:43:37;47.93;;;28.33;;
15049;SDS011;7622;42.724;23.250;2024-01-06T07:46:04;42.13;;;24.23;;
15049;SDS011;7622;42.724;23.250;2024-01-06T07:48:33;44.80;;;27.10;;
15049;SDS011;7622;42.724;23.250;2024-01-06T07:51:00;46.83;;;27.63;;
15049;SDS011;7622;42.724;23.250;2024-01-06T07:53:28;53.20;;;27.47;;
15049;SDS011;7622;42.724;23.250;2024-01-06T07:55:55;51.90;;;28.17;;
15049;SDS011;7622;42.724;23.250;2024-01-06T07:58:22;51.77;;;30.87;;
15049;SDS011;7622;42.724;23.250;2024-01-06T08:00:48;56.63;;;31.40;;
15049;SDS011;7622;42.724;23.250;2024-01-06T08:03:15;56.73;;;30.77;;
15049;SDS011;7622;42.724;23.250;2024-01-06T08:05:43;49.63;;;29.20;;
15049;SDS011;7622;42.724;23.250;2024-01-06T08:08:10;49.03;;;29.87;;
15049;SDS011;7622;42.724;23.250;2024-01-06T08:10:38;45.47;;;27.43;;
15049;SDS011;7622;42.724;23.250;2024-01-06T08:13:05;47.37;;;28.80;;
15049;SDS011;7622;42.724;23.250;2024-01-06T08:15:31;56.57;;;30.00;;
15049;SDS011;7622;42.724;23.250;2024-01-06T08:17:58;50.43;;;30.13;;
15049;SDS011;7622;42.724;23.250;2024-01-06T08:20:25;47.53;;;29.77;;
15049;SDS011;7622;42.724;23.250;2024-01-06T08:22:54;50.40;;;28.83;;
15049;SDS011;7622;42.724;23.250;2024-01-06T08:25:23;48.37;;;28.57;;
15049;SDS011;7622;42.724;23.250;2024-01-06T08:27:52;41.33;;;26.07;;
15049;SDS011;7622;42.724;23.250;2024-01-06T08:30:19;55.83;;;28.07;;
15049;SDS011;7622;42.724;23.250;2024-01-06T08:32:45;41.73;;;23.80;;
15049;SDS011;7622;42.724;23.250;2024-01-06T08:35:12;42.20;;;22.70;;
15049;SDS011;7622;42.724;23.250;2024-01-06T08:37:42;35.97;;;22.37;;
15049;SDS011;7622;42.724;23.250;2024-01-06T08:40:11;36.57;;;22.20;;
15049;SDS011;7622;42.724;23.250;2024-01-06T08:42:37;34.80;;;21.20;;
15049;SDS011;7622;42.724;23.250;2024-01-06T08:45:04;29.77;;;19.73;;
15049;SDS011;7622;42.724;23.250;2024-01-06T08:47:31;34.87;;;19.83;;
15049;SDS011;7622;42.724;23.250;2024-01-06T08:49:58;30.67;;;20.23;;
15049;SDS011;7622;42.724;23.250;2024-01-06T08:52:24;31.60;;;21.30;;
15049;SDS011;7622;42.724;23.250;2024-01-06T08:54:51;30.37;;;21.17;;
15049;SDS011;7622;42.724;23.250;2024-01-06T08:57:20;34.03;;;20.90;;
15049;SDS011;7622;42.724;23.250;2024-01-06T08:59:47;25.53;;;19.10;;
15049;SDS011;7622;42.724;23.250;2024-01-06T09:02:13;32.57;;;19.53;;
15049;SDS011;7622;42.724;23.250;2024-01-06T09:04:40;34.73;;;22.43;;
15049;SDS011;7622;42.724;23.250;2024-01-06T09:07:07;38.23;;;22.67;;
15049;SDS011;7622;42.724;23.250;2024-01-06T09:09:34;32.13;;;20.30;;
15049;SDS011;7622;42.724;23.250;2024-01-06T09:12:01;31.13;;;18.20;;
15049;SDS011;7622;42.724;23.250;2024-01-06T09:14:29;33.20;;;20.13;;
15049;SDS011;7622;42.724;23.250;2024-01-06T09:16:56;37.90;;;22.07;;
15049;SDS011;7622;42.724;23.250;2024-01-06T09:19:23;39.57;;;22.30;;
15049;SDS011;7622;42.724;23.250;2024-01-06T09:21:50;39.80;;;23.27;;
15049;SDS011;7622;42.724;23.250;2024-01-06T09:24:17;32.83;;;22.83;;
15049;SDS011;7622;42.724;23.250;2024-01-06T09:26:43;37.50;;;24.23;;
15049;SDS011;7622;42.724;23.250;2024-01-06T09:29:11;39.97;;;24.73;;
15049;SDS011;7622;42.724;23.250;2024-01-06T09:31:39;40.97;;;25.60;;
15049;SDS011;7622;42.724;23.250;2024-01-06T09:34:08;42.47;;;25.57;;
15049;SDS011;7622;42.724;23.250;2024-01-06T09:36:35;39.67;;;25.07;;
15049;SDS011;7622;42.724;23.250;2024-01-06T09:39:02;44.47;;;23.40;;
15049;SDS011;7622;42.724;23.250;2024-01-06T09:41:29;38.33;;;22.47;;
15049;SDS011;7622;42.724;23.250;2024-01-06T09:43:56;32.30;;;21.37;;
15049;SDS011;7622;42.724;23.250;2024-01-06T09:46:24;33.17;;;21.50;;
15049;SDS011;7622;42.724;23.250;2024-01-06T09:48:53;31.63;;;21.13;;
15049;SDS011;7622;42.724;23.250;2024-01-06T09:51:20;31.53;;;19.37;;
15049;SDS011;7622;42.724;23.250;2024-01-06T09:53:49;25.53;;;16.50;;
15049;SDS011;7622;42.724;23.250;2024-01-06T09:56:22;25.90;;;14.67;;
15049;SDS011;7622;42.724;23.250;2024-01-06T09:58:50;20.60;;;13.53;;
15049;SDS011;7622;42.724;23.250;2024-01-06T10:01:17;22.37;;;12.23;;
15049;SDS011;7622;42.724;23.250;2024-01-06T10:03:45;18.50;;;12.13;;
15049;SDS011;7622;42.724;23.250;2024-01-06T10:06:13;21.13;;;11.43;;
15049;SDS011;7622;42.724;23.250;2024-01-06T10:08:42;40.30;;;20.23;;
15049;SDS011;7622;42.724;23.250;2024-01-06T10:11:09;23.30;;;10.87;;
15049;SDS011;7622;42.724;23.250;2024-01-06T10:13:36;16.17;;;11.17;;
15049;SDS011;7622;42.724;23.250;2024-01-06T10:16:03;16.13;;;10.50;;
15049;SDS011;7622;42.724;23.250;2024-01-06T10:18:30;18.77;;;10.60;;
15049;SDS011;7622;42.724;23.250;2024-01-06T10:20:57;15.60;;;9.63;;
15049;SDS011;7622;42.724;23.250;2024-01-06T10:23:27;17.90;;;9.50;;
15049;SDS011;7622;42.724;23.250;2024-01-06T10:25:54;22.03;;;9.13;;
15049;SDS011;7622;42.724;23.250;2024-01-06T10:28:21;17.03;;;9.53;;
15049;SDS011;7622;42.724;23.250;2024-01-06T10:30:49;20.10;;;10.23;;
15049;SDS011;7622;42.724;23.250;2024-01-06T10:33:19;23.10;;;9.60;;
15049;SDS011;7622;42.724;23.250;2024-01-06T10:35:49;15.37;;;9.90;;
15049;SDS011;7622;42.724;23.250;2024-01-06T10:38:18;15.43;;;10.17;;
15049;SDS011;7622;42.724;23.250;2024-01-06T10:40:58;15.80;;;8.57;;
15049;SDS011;7622;42.724;23.250;2024-01-06T10:43:27;10.03;;;7.80;;
15049;SDS011;7622;42.724;23.250;2024-01-06T10:45:55;11.23;;;7.33;;
15049;SDS011;7622;42.724;23.250;2024-01-06T10:48:24;19.20;;;7.27;;
15049;SDS011;7622;42.724;23.250;2024-01-06T10:50:51;12.27;;;6.60;;
15049;SDS011;7622;42.724;23.250;2024-01-06T10:53:20;11.33;;;5.77;;
15049;SDS011;7622;42.724;23.250;2024-01-06T10:55:48;12.53;;;7.03;;
15049;SDS011;7622;42.724;23.250;2024-01-06T10:58:18;5.67;;;4.13;;
15049;SDS011;7622;42.724;23.250;2024-01-06T11:00:44;7.80;;;5.37;;
15049;SDS011;7622;42.724;23.250;2024-01-06T11:03:13;7.97;;;5.53;;
15049;SDS011;7622;42.724;23.250;2024-01-06T11:05:40;11.10;;;6.53;;
15049;SDS011;7622;42.724;23.250;2024-01-06T11:08:08;12.67;;;6.67;;
15049;SDS011;7622;42.724;23.250;2024-01-06T11:10:36;6.90;;;6.20;;
15049;SDS011;7622;42.724;23.250;2024-01-06T11:13:10;19.47;;;8.57;;
15049;SDS011;7622;42.724;23.250;2024-01-06T11:15:43;12.03;;;6.80;;
15049;SDS011;7622;42.724;23.250;2024-01-06T11:18:31;14.10;;;7.60;;
15049;SDS011;7622;42.724;23.250;2024-01-06T11:21:14;18.80;;;8.43;;
15049;SDS011;7622;42.724;23.250;2024-01-06T11:23:50;10.47;;;7.73;;
15049;SDS011;7622;42.724;23.250;2024-01-06T11:26:36;14.57;;;9.17;;
15049;SDS011;7622;42.724;23.250;2024-01-06T11:29:05;15.40;;;7.60;;
15049;SDS011;7622;42.724;23.250;2024-01-06T11:31:35;12.10;;;8.60;;
15049;SDS011;7622;42.724;23.250;2024-01-06T11:34:12;10.93;;;7.80;;
15049;SDS011;7622;42.724;23.250;2024-01-06T11:36:39;11.97;;;7.20;;
15049;SDS011;7622;42.724;23.250;2024-01-06T11:39:06;10.57;;;7.60;;
15049;SDS011;7622;42.724;23.250;2024-01-06T11:41:47;9.80;;;7.30;;
15049;SDS011;7622;42.724;23.250;2024-01-06T11:44:17;11.53;;;7.23;;
15049;SDS011;7622;42.724;23.250;2024-01-06T11:46:46;11.03;;;7.83;;
15049;SDS011;7622;42.724;23.250;2024-01-06T11:49:15;12.23;;;8.37;;
15049;SDS011;7622;42.724;23.250;2024-01-06T11:51:42;14.43;;;9.27;;
15049;SDS011;7622;42.724;23.250;2024-01-06T11:54:09;14.67;;;10.43;;
15049;SDS011;7622;42.724;23.250;2024-01-06T11:56:37;16.60;;;10.00;;
15049;SDS011;7622;42.724;23.250;2024-01-06T11:59:05;15.40;;;9.90;;
15049;SDS011;7622;42.724;23.250;2024-01-06T12:01:36;10.53;;;8.83;;
15049;SDS011;7622;42.724;23.250;2024-01-06T12:04:04;15.97;;;9.10;;
15049;SDS011;7622;42.724;23.250;2024-01-06T12:06:32;17.53;;;10.53;;
15049;SDS011;7622;42.724;23.250;2024-01-06T12:09:05;14.17;;;9.73;;
15049;SDS011;7622;42.724;23.250;2024-01-06T12:11:32;21.60;;;10.77;;
15049;SDS011;7622;42.724;23.250;2024-01-06T12:13:59;13.53;;;9.57;;
15049;SDS011;7622;42.724;23.250;2024-01-06T12:16:26;17.83;;;10.10;;
15049;SDS011;7622;42.724;23.250;2024-01-06T12:18:53;16.20;;;9.27;;
15049;SDS011;7622;42.724;23.250;2024-01-06T12:21:23;16.23;;;9.73;;
15049;SDS011;7622;42.724;23.250;2024-01-06T12:23:50;14.03;;;8.57;;
15049;SDS011;7622;42.724;23.250;2024-01-06T12:26:17;17.90;;;10.00;;
15049;SDS011;7622;42.724;23.250;2024-01-06T12:28:44;13.37;;;8.80;;
15049;SDS011;7622;42.724;23.250;2024-01-06T12:31:11;14.57;;;8.27;;
15049;SDS011;7622;42.724;23.250;2024-01-06T12:33:38;13.80;;;8.60;;
15049;SDS011;7622;42.724;23.250;2024-01-06T12:38:35;12.50;;;8.10;;
15049;SDS011;7622;42.724;23.250;2024-01-06T12:41:02;13.13;;;8.13;;
15049;SDS011;7622;42.724;23.250;2024-01-06T12:43:29;10.80;;;7.67;;
15049;SDS011;7622;42.724;23.250;2024-01-06T12:45:56;14.70;;;8.53;;
15049;SDS011;7622;42.724;23.250;2024-01-06T12:48:23;7.93;;;7.13;;
15049;SDS011;7622;42.724;23.250;2024-01-06T12:50:50;16.80;;;7.27;;
15049;SDS011;7622;42.724;23.250;2024-01-06T12:53:16;14.17;;;8.37;;
15049;SDS011;7622;42.724;23.250;2024-01-06T12:55:44;12.90;;;6.97;;
15049;SDS011;7622;42.724;23.250;2024-01-06T12:58:11;11.30;;;7.07;;
15049;SDS011;7622;42.724;23.250;2024-01-06T13:00:38;15.17;;;5.73;;
15049;SDS011;7622;42.724;23.250;2024-01-06T13:03:06;8.73;;;5.30;;
15049;SDS011;7622;42.724;23.250;2024-01-06T13:05:33;9.60;;;5.37;;
15049;SDS011;7622;42.724;23.250;2024-01-06T13:08:00;10.67;;;5.73;;
15049;SDS011;7622;42.724;23.250;2024-01-06T13:10:28;8.23;;;5.97;;
15049;SDS011;7622;42.724;23.250;2024-01-06T13:12:56;10.90;;;6.80;;
15049;SDS011;7622;42.724;23.250;2024-01-06T13:15:23;10.73;;;6.80;;
15049;SDS011;7622;42.724;23.250;2024-01-06T13:17:50;7.47;;;6.20;;
15049;SDS011;7622;42.724;23.250;2024-01-06T13:20:16;10.97;;;6.47;;
15049;SDS011;7622;42.724;23.250;2024-01-06T13:22:43;7.63;;;6.20;;
15049;SDS011;7622;42.724;23.250;2024-01-06T13:25:10;12.10;;;7.27;;
15049;SDS011;7622;42.724;23.250;2024-01-06T13:27:36;9.87;;;7.00;;
15049;SDS011;7622;42.724;23.250;2024-01-06T13:30:05;11.80;;;6.57;;
15049;SDS011;7622;42.724;23.250;2024-01-06T13:32:33;7.70;;;5.33;;
15049;SDS011;7622;42.724;23.250;2024-01-06T13:35:00;10.67;;;5.73;;
15049;SDS011;7622;42.724;23.250;2024-01-06T13:37:29;8.90;;;6.70;;
15049;SDS011;7622;42.724;23.250;2024-01-06T13:39:57;12.37;;;6.33;;
15049;SDS011;7622;42.724;23.250;2024-01-06T13:42:24;10.83;;;6.57;;
15049;SDS011;7622;42.724;23.250;2024-01-06T13:44:50;9.67;;;6.50;;
15049;SDS011;7622;42.724;23.250;2024-01-06T13:47:19;10.67;;;6.27;;
15049;SDS011;7622;42.724;23.250;2024-01-06T13:49:46;7.60;;;5.70;;
15049;SDS011;7622;42.724;23.250;2024-01-06T13:52:13;12.30;;;8.37;;
15049;SDS011;7622;42.724;23.250;2024-01-06T13:54:40;10.53;;;7.67;;
15049;SDS011;7622;42.724;23.250;2024-01-06T13:57:07;9.83;;;7.10;;
15049;SDS011;7622;42.724;23.250;2024-01-06T13:59:35;12.33;;;7.17;;
15049;SDS011;7622;42.724;23.250;2024-01-06T14:02:08;15.00;;;8.63;;
15049;SDS011;7622;42.724;23.250;2024-01-06T14:04:38;12.13;;;8.27;;
15049;SDS011;7622;42.724;23.250;2024-01-06T14:07:05;13.50;;;8.07;;
15049;SDS011;7622;42.724;23.250;2024-01-06T14:09:32;17.97;;;8.67;;
15049;SDS011;7622;42.724;23.250;2024-01-06T14:11:59;12.47;;;8.57;;
15049;SDS011;7622;42.724;23.250;2024-01-06T14:14:25;14.83;;;7.93;;
15049;SDS011;7622;42.724;23.250;2024-01-06T14:16:52;12.20;;;8.13;;
15049;SDS011;7622;42.724;23.250;2024-01-06T14:19:19;11.40;;;8.60;;
15049;SDS011;7622;42.724;23.250;2024-01-06T14:21:47;13.17;;;9.47;;
15049;SDS011;7622;42.724;23.250;2024-01-06T14:24:15;11.97;;;9.13;;
15049;SDS011;7622;42.724;23.250;2024-01-06T14:26:44;13.40;;;9.70;;
15049;SDS011;7622;42.724;23.250;2024-01-06T14:29:10;12.53;;;8.50;;
15049;SDS011;7622;42.724;23.250;2024-01-06T14:31:41;21.47;;;9.57;;